sensor_id;sensor_type;location;lat;lon;timestamp;P1;durP1;ratioP1;P2;durP2;ratioP2
84254;SDS011;74400;44.692;18.998;2024-03-08T00:00:08;34.58;;;21.55;;
84254;SDS011;74400;44.692;18.998;2024-03-08T00:02:38;38.88;;;21.13;;
84254;SDS011;74400;44.692;18.998;2024-03-08T00:05:05;39.60;;;21.92;;
84254;SDS011;74400;44.692;18.998;2024-03-08T00:07:31;38.55;;;22.15;;
84254;SDS011;74400;44.692;18.998;2024-03-08T00:09:57;41.47;;;21.90;;
84254;SDS011;74400;44.692;18.998;2024-03-08T00:12:23;37.17;;;21.75;;
84254;SDS011;74400;44.692;18.998;2024-03-08T00:14:51;40.47;;;23.25;;
84254;SDS011;74400;44.692;18.998;2024-03-08T00:17:16;42.60;;;22.20;;
84254;SDS011;74400;44.692;18.998;2024-03-08T00:19:42;37.63;;;21.90;;
84254;SDS011;74400;44.692;18.998;2024-03-08T00:22:08;39.83;;;21.10;;
84254;SDS011;74400;44.692;18.998;2024-03-08T00:24:35;41.22;;;22.20;;
84254;SDS011;74400;44.692;18.998;2024-03-08T00:27:00;35.03;;;20.65;;
84254;SDS011;74400;44.692;18.998;2024-03-08T00:29:27;40.53;;;21.58;;
84254;SDS011;74400;44.692;18.998;2024-03-08T00:31:52;35.22;;;20.50;;
84254;SDS011;74400;44.692;18.998;2024-03-08T00:34:18;35.58;;;20.00;;
84254;SDS011;74400;44.692;18.998;2024-03-08T00:36:44;36.25;;;20.80;;
84254;SDS011;74400;44.692;18.998;2024-03-08T00:39:10;35.22;;;20.80;;
84254;SDS011;74400;44.692;18.998;2024-03-08T00:41:37;39.35;;;22.58;;
84254;SDS011;74400;44.692;18.998;2024-03-08T00:44:02;43.55;;;21.52;;
84254;SDS011;74400;44.692;18.998;2024-03-08T00:46:30;44.20;;;22.55;;
84254;SDS011;74400;44.692;18.998;2024-03-08T00:48:56;41.05;;;22.20;;
84254;SDS011;74400;44.692;18.998;2024-03-08T00:51:22;40.35;;;22.38;;
84254;SDS011;74400;44.692;18.998;2024-03-08T00:53:48;41.03;;;21.38;;
84254;SDS011;74400;44.692;18.998;2024-03-08T00:56:13;40.58;;;21.20;;
84254;SDS011;74400;44.692;18.998;2024-03-08T00:58:39;36.72;;;19.23;;
84254;SDS011;74400;44.692;18.998;2024-03-08T01:01:05;34.05;;;19.20;;
84254;SDS011;74400;44.692;18.998;2024-03-08T01:03:31;35.50;;;20.23;;
84254;SDS011;74400;44.692;18.998;2024-03-08T01:05:57;31.83;;;17.85;;
84254;SDS011;74400;44.692;18.998;2024-03-08T01:08:23;32.10;;;18.88;;
84254;SDS011;74400;44.692;18.998;2024-03-08T01:10:48;30.98;;;17.17;;
84254;SDS011;74400;44.692;18.998;2024-03-08T01:13:15;31.40;;;17.33;;
84254;SDS011;74400;44.692;18.998;2024-03-08T01:15:41;28.20;;;16.15;;
84254;SDS011;74400;44.692;18.998;2024-03-08T01:18:07;28.75;;;15.98;;
84254;SDS011;74400;44.692;18.998;2024-03-08T01:20:33;22.63;;;14.43;;
84254;SDS011;74400;44.692;18.998;2024-03-08T01:22:58;25.58;;;15.30;;
84254;SDS011;74400;44.692;18.998;2024-03-08T01:25:24;23.08;;;14.40;;
84254;SDS011;74400;44.692;18.998;2024-03-08T01:27:50;26.30;;;15.00;;
84254;SDS011;74400;44.692;18.998;2024-03-08T01:30:15;26.55;;;14.32;;
84254;SDS011;74400;44.692;18.998;2024-03-08T01:32:42;22.80;;;14.80;;
84254;SDS011;74400;44.692;18.998;2024-03-08T01:35:09;20.08;;;13.75;;
84254;SDS011;74400;44.692;18.998;2024-03-08T01:37:35;21.67;;;13.90;;
84254;SDS011;74400;44.692;18.998;2024-03-08T01:40:01;20.42;;;13.75;;
84254;SDS011;74400;44.692;18.998;2024-03-08T01:42:28;20.17;;;13.18;;
84254;SDS011;74400;44.692;18.998;2024-03-08T01:44:54;26.08;;;14.55;;
84254;SDS011;74400;44.692;18.998;2024-03-08T01:47:21;25.33;;;14.82;;
84254;SDS011;74400;44.692;18.998;2024-03-08T01:49:50;21.50;;;14.45;;
84254;SDS011;74400;44.692;18.998;2024-03-08T01:52:16;22.38;;;14.23;;
84254;SDS011;74400;44.692;18.998;2024-03-08T01:54:46;22.95;;;14.45;;
84254;SDS011;74400;44.692;18.998;2024-03-08T01:57:11;22.40;;;14.20;;
84254;SDS011;74400;44.692;18.998;2024-03-08T01:59:38;23.13;;;14.57;;
84254;SDS011;74400;44.692;18.998;2024-03-08T02:02:05;21.75;;;13.57;;
84254;SDS011;74400;44.692;18.998;2024-03-08T02:04:34;20.35;;;13.68;;
84254;SDS011;74400;44.692;18.998;2024-03-08T02:07:01;21.23;;;14.73;;
84254;SDS011;74400;44.692;18.998;2024-03-08T02:09:27;27.38;;;15.63;;
84254;SDS011;74400;44.692;18.998;2024-03-08T02:11:53;23.85;;;14.60;;
84254;SDS011;74400;44.692;18.998;2024-03-08T02:14:20;22.92;;;14.95;;
84254;SDS011;74400;44.692;18.998;2024-03-08T02:16:46;24.80;;;15.13;;
84254;SDS011;74400;44.692;18.998;2024-03-08T02:19:11;25.27;;;15.82;;
84254;SDS011;74400;44.692;18.998;2024-03-08T02:21:37;25.67;;;15.95;;
84254;SDS011;74400;44.692;18.998;2024-03-08T02:24:03;25.00;;;15.35;;
84254;SDS011;74400;44.692;18.998;2024-03-08T02:26:30;24.58;;;14.80;;
84254;SDS011;74400;44.692;18.998;2024-03-08T02:28:56;22.02;;;15.00;;
84254;SDS011;74400;44.692;18.998;2024-03-08T02:31:21;24.45;;;15.38;;
84254;SDS011;74400;44.692;18.998;2024-03-08T02:33:47;27.10;;;16.23;;
84254;SDS011;74400;44.692;18.998;2024-03-08T02:38:39;24.00;;;15.45;;
84254;SDS011;74400;44.692;18.998;2024-03-08T02:41:06;28.38;;;17.05;;
84254;SDS011;74400;44.692;18.998;2024-03-08T02:43:33;26.80;;;16.33;;
84254;SDS011;74400;44.692;18.998;2024-03-08T02:45:59;29.55;;;17.50;;
84254;SDS011;74400;44.692;18.998;2024-03-08T02:48:25;28.33;;;17.30;;
84254;SDS011;74400;44.692;18.998;2024-03-08T02:50:51;28.05;;;16.80;;
84254;SDS011;74400;44.692;18.998;2024-03-08T02:53:17;29.23;;;17.63;;
84254;SDS011;74400;44.692;18.998;2024-03-08T02:55:44;28.80;;;16.75;;
84254;SDS011;74400;44.692;18.998;2024-03-08T02:58:09;27.95;;;16.77;;
84254;SDS011;74400;44.692;18.998;2024-03-08T03:00:36;27.98;;;16.85;;
84254;SDS011;74400;44.692;18.998;2024-03-08T03:03:02;29.13;;;17.30;;
84254;SDS011;74400;44.692;18.998;2024-03-08T03:05:29;25.80;;;15.90;;
84254;SDS011;74400;44.692;18.998;2024-03-08T03:07:55;25.17;;;16.42;;
84254;SDS011;74400;44.692;18.998;2024-03-08T03:10:21;25.98;;;15.98;;
84254;SDS011;74400;44.692;18.998;2024-03-08T03:12:47;25.58;;;15.13;;
84254;SDS011;74400;44.692;18.998;2024-03-08T03:15:16;26.65;;;16.00;;
84254;SDS011;74400;44.692;18.998;2024-03-08T03:17:49;27.00;;;15.55;;
84254;SDS011;74400;44.692;18.998;2024-03-08T03:20:18;27.27;;;16.00;;
84254;SDS011;74400;44.692;18.998;2024-03-08T03:23:05;24.67;;;14.85;;
84254;SDS011;74400;44.692;18.998;2024-03-08T03:25:34;27.40;;;16.42;;
84254;SDS011;74400;44.692;18.998;2024-03-08T03:28:03;25.73;;;15.63;;
84254;SDS011;74400;44.692;18.998;2024-03-08T03:30:30;25.50;;;16.42;;
84254;SDS011;74400;44.692;18.998;2024-03-08T03:32:59;26.10;;;16.10;;
84254;SDS011;74400;44.692;18.998;2024-03-08T03:35:26;25.38;;;14.43;;
84254;SDS011;74400;44.692;18.998;2024-03-08T03:37:52;24.80;;;15.00;;
84254;SDS011;74400;44.692;18.998;2024-03-08T03:40:28;24.33;;;14.98;;
84254;SDS011;74400;44.692;18.998;2024-03-08T03:42:54;25.30;;;15.98;;
84254;SDS011;74400;44.692;18.998;2024-03-08T03:45:20;25.15;;;15.55;;
84254;SDS011;74400;44.692;18.998;2024-03-08T03:47:46;27.77;;;16.85;;
84254;SDS011;74400;44.692;18.998;2024-03-08T03:50:11;30.55;;;16.77;;
84254;SDS011;74400;44.692;18.998;2024-03-08T03:52:37;28.15;;;16.17;;
84254;SDS011;74400;44.692;18.998;2024-03-08T03:55:03;27.60;;;16.42;;
84254;SDS011;74400;44.692;18.998;2024-03-08T03:57:30;25.88;;;16.10;;
84254;SDS011;74400;44.692;18.998;2024-03-08T03:59:56;28.48;;;16.38;;
84254;SDS011;74400;44.692;18.998;2024-03-08T04:02:24;27.50;;;16.48;;
84254;SDS011;74400;44.692;18.998;2024-03-08T04:04:54;25.85;;;16.63;;
84254;SDS011;74400;44.692;18.998;2024-03-08T04:07:20;24.67;;;15.25;;
84254;SDS011;74400;44.692;18.998;2024-03-08T04:09:46;24.85;;;15.27;;
84254;SDS011;74400;44.692;18.998;2024-03-08T04:12:12;23.55;;;15.82;;
84254;SDS011;74400;44.692;18.998;2024-03-08T04:14:41;24.33;;;15.02;;
84254;SDS011;74400;44.692;18.998;2024-03-08T04:17:08;24.35;;;15.00;;
84254;SDS011;74400;44.692;18.998;2024-03-08T04:19:37;25.00;;;14.88;;
84254;SDS011;74400;44.692;18.998;2024-03-08T04:22:05;23.42;;;14.45;;
84254;SDS011;74400;44.692;18.998;2024-03-08T04:24:31;24.77;;;14.35;;
84254;SDS011;74400;44.692;18.998;2024-03-08T04:26:56;24.27;;;14.90;;
84254;SDS011;74400;44.692;18.998;2024-03-08T04:29:23;24.00;;;14.18;;
84254;SDS011;74400;44.692;18.998;2024-03-08T04:31:48;25.45;;;14.70;;
84254;SDS011;74400;44.692;18.998;2024-03-08T04:34:14;24.08;;;14.50;;
84254;SDS011;74400;44.692;18.998;2024-03-08T04:36:39;23.75;;;14.57;;
84254;SDS011;74400;44.692;18.998;2024-03-08T04:39:05;24.15;;;14.88;;
84254;SDS011;74400;44.692;18.998;2024-03-08T04:41:31;23.63;;;14.80;;
84254;SDS011;74400;44.692;18.998;2024-03-08T04:43:59;26.58;;;15.10;;
84254;SDS011;74400;44.692;18.998;2024-03-08T04:46:25;25.38;;;16.02;;
84254;SDS011;74400;44.692;18.998;2024-03-08T04:48:53;27.20;;;16.48;;
84254;SDS011;74400;44.692;18.998;2024-03-08T04:51:19;26.38;;;15.98;;
84254;SDS011;74400;44.692;18.998;2024-03-08T04:53:45;35.20;;;19.13;;
84254;SDS011;74400;44.692;18.998;2024-03-08T04:56:10;41.65;;;25.48;;
84254;SDS011;74400;44.692;18.998;2024-03-08T04:58:36;40.90;;;23.88;;
84254;SDS011;74400;44.692;18.998;2024-03-08T05:01:02;46.33;;;26.50;;
84254;SDS011;74400;44.692;18.998;2024-03-08T05:03:28;18.30;;;13.18;;
84254;SDS011;74400;44.692;18.998;2024-03-08T05:05:53;18.50;;;12.05;;
84254;SDS011;74400;44.692;18.998;2024-03-08T05:08:19;20.08;;;12.80;;
84254;SDS011;74400;44.692;18.998;2024-03-08T05:10:45;18.70;;;11.93;;
84254;SDS011;74400;44.692;18.998;2024-03-08T05:13:11;19.77;;;12.65;;
84254;SDS011;74400;44.692;18.998;2024-03-08T05:15:37;24.83;;;14.90;;
84254;SDS011;74400;44.692;18.998;2024-03-08T05:18:04;26.50;;;15.65;;
84254;SDS011;74400;44.692;18.998;2024-03-08T05:20:30;29.55;;;18.35;;
84254;SDS011;74400;44.692;18.998;2024-03-08T05:22:56;24.02;;;15.38;;
84254;SDS011;74400;44.692;18.998;2024-03-08T05:25:25;29.40;;;16.70;;
84254;SDS011;74400;44.692;18.998;2024-03-08T05:27:51;23.27;;;16.05;;
84254;SDS011;74400;44.692;18.998;2024-03-08T05:30:18;26.67;;;17.25;;
84254;SDS011;74400;44.692;18.998;2024-03-08T05:32:43;30.38;;;17.98;;
84254;SDS011;74400;44.692;18.998;2024-03-08T05:35:12;28.77;;;16.98;;
84254;SDS011;74400;44.692;18.998;2024-03-08T05:37:38;21.20;;;13.65;;
84254;SDS011;74400;44.692;18.998;2024-03-08T05:40:05;18.92;;;12.40;;
84254;SDS011;74400;44.692;18.998;2024-03-08T05:42:34;21.02;;;13.45;;
84254;SDS011;74400;44.692;18.998;2024-03-08T05:45:02;17.27;;;11.27;;
84254;SDS011;74400;44.692;18.998;2024-03-08T05:47:28;21.45;;;14.10;;
84254;SDS011;74400;44.692;18.998;2024-03-08T05:49:54;22.73;;;13.77;;
84254;SDS011;74400;44.692;18.998;2024-03-08T05:52:20;23.77;;;14.80;;
84254;SDS011;74400;44.692;18.998;2024-03-08T05:54:45;24.15;;;15.70;;
84254;SDS011;74400;44.692;18.998;2024-03-08T05:57:12;28.85;;;17.90;;
84254;SDS011;74400;44.692;18.998;2024-03-08T05:59:37;26.80;;;16.15;;
84254;SDS011;74400;44.692;18.998;2024-03-08T06:02:03;26.58;;;17.65;;
84254;SDS011;74400;44.692;18.998;2024-03-08T06:04:29;22.20;;;15.73;;
84254;SDS011;74400;44.692;18.998;2024-03-08T06:06:56;23.65;;;16.40;;
84254;SDS011;74400;44.692;18.998;2024-03-08T06:09:23;25.20;;;15.88;;
84254;SDS011;74400;44.692;18.998;2024-03-08T06:11:52;22.33;;;14.48;;
84254;SDS011;74400;44.692;18.998;2024-03-08T06:14:19;20.63;;;13.85;;
84254;SDS011;74400;44.692;18.998;2024-03-08T06:16:45;21.23;;;14.13;;
84254;SDS011;74400;44.692;18.998;2024-03-08T06:19:12;25.40;;;15.15;;
84254;SDS011;74400;44.692;18.998;2024-03-08T06:21:39;22.63;;;14.43;;
84254;SDS011;74400;44.692;18.998;2024-03-08T06:24:05;21.20;;;13.52;;
84254;SDS011;74400;44.692;18.998;2024-03-08T06:26:30;16.33;;;11.60;;
84254;SDS011;74400;44.692;18.998;2024-03-08T06:28:56;17.20;;;11.35;;
84254;SDS011;74400;44.692;18.998;2024-03-08T06:31:22;15.32;;;10.68;;
84254;SDS011;74400;44.692;18.998;2024-03-08T06:33:48;17.15;;;10.55;;
84254;SDS011;74400;44.692;18.998;2024-03-08T06:36:19;15.60;;;10.73;;
84254;SDS011;74400;44.692;18.998;2024-03-08T06:38:47;16.40;;;10.85;;
84254;SDS011;74400;44.692;18.998;2024-03-08T06:41:15;19.42;;;12.30;;
84254;SDS011;74400;44.692;18.998;2024-03-08T06:43:45;20.15;;;12.55;;
84254;SDS011;74400;44.692;18.998;2024-03-08T06:46:12;21.52;;;14.63;;
84254;SDS011;74400;44.692;18.998;2024-03-08T06:48:40;21.00;;;13.90;;
84254;SDS011;74400;44.692;18.998;2024-03-08T06:51:06;20.92;;;14.40;;
84254;SDS011;74400;44.692;18.998;2024-03-08T06:53:32;20.58;;;14.48;;
84254;SDS011;74400;44.692;18.998;2024-03-08T06:56:00;17.08;;;11.60;;
84254;SDS011;74400;44.692;18.998;2024-03-08T06:58:27;15.45;;;9.98;;
84254;SDS011;74400;44.692;18.998;2024-03-08T07:00:53;16.58;;;11.27;;
84254;SDS011;74400;44.692;18.998;2024-03-08T07:03:19;15.60;;;10.60;;
84254;SDS011;74400;44.692;18.998;2024-03-08T07:05:45;17.13;;;12.00;;
84254;SDS011;74400;44.692;18.998;2024-03-08T07:08:11;17.45;;;12.20;;
84254;SDS011;74400;44.692;18.998;2024-03-08T07:10:39;18.17;;;12.80;;
84254;SDS011;74400;44.692;18.998;2024-03-08T07:13:07;18.98;;;11.95;;
84254;SDS011;74400;44.692;18.998;2024-03-08T07:15:32;20.10;;;12.50;;
84254;SDS011;74400;44.692;18.998;2024-03-08T07:17:58;16.85;;;10.88;;
84254;SDS011;74400;44.692;18.998;2024-03-08T07:20:25;23.80;;;13.57;;
84254;SDS011;74400;44.692;18.998;2024-03-08T07:22:51;20.92;;;12.20;;
84254;SDS011;74400;44.692;18.998;2024-03-08T07:25:16;17.92;;;11.88;;
84254;SDS011;74400;44.692;18.998;2024-03-08T07:30:15;18.80;;;11.52;;
84254;SDS011;74400;44.692;18.998;2024-03-08T07:32:59;16.48;;;10.50;;
84254;SDS011;74400;44.692;18.998;2024-03-08T07:35:27;15.43;;;10.65;;
84254;SDS011;74400;44.692;18.998;2024-03-08T07:37:54;15.13;;;10.60;;
84254;SDS011;74400;44.692;18.998;2024-03-08T07:40:25;15.88;;;10.82;;
84254;SDS011;74400;44.692;18.998;2024-03-08T07:42:51;13.93;;;10.18;;
84254;SDS011;74400;44.692;18.998;2024-03-08T07:45:17;15.45;;;10.00;;
84254;SDS011;74400;44.692;18.998;2024-03-08T07:47:43;15.38;;;9.68;;
84254;SDS011;74400;44.692;18.998;2024-03-08T07:50:09;18.92;;;11.95;;
84254;SDS011;74400;44.692;18.998;2024-03-08T07:52:35;18.83;;;11.90;;
84254;SDS011;74400;44.692;18.998;2024-03-08T07:55:04;20.08;;;11.93;;
84254;SDS011;74400;44.692;18.998;2024-03-08T07:57:31;21.65;;;13.13;;
84254;SDS011;74400;44.692;18.998;2024-03-08T07:59:57;22.38;;;14.90;;
84254;SDS011;74400;44.692;18.998;2024-03-08T08:02:23;19.85;;;13.77;;
84254;SDS011;74400;44.692;18.998;2024-03-08T08:04:48;23.88;;;14.73;;
84254;SDS011;74400;44.692;18.998;2024-03-08T08:07:14;22.50;;;13.73;;
84254;SDS011;74400;44.692;18.998;2024-03-08T08:09:40;22.85;;;16.02;;
84254;SDS011;74400;44.692;18.998;2024-03-08T08:12:10;31.58;;;19.40;;
84254;SDS011;74400;44.692;18.998;2024-03-08T08:14:37;32.20;;;18.50;;
84254;SDS011;74400;44.692;18.998;2024-03-08T08:17:04;23.95;;;14.02;;
84254;SDS011;74400;44.692;18.998;2024-03-08T08:19:30;24.73;;;15.15;;
84254;SDS011;74400;44.692;18.998;2024-03-08T08:21:57;25.75;;;16.33;;
84254;SDS011;74400;44.692;18.998;2024-03-08T08:24:23;26.90;;;16.17;;
84254;SDS011;74400;44.692;18.998;2024-03-08T08:26:49;19.08;;;13.27;;
84254;SDS011;74400;44.692;18.998;2024-03-08T08:29:15;18.92;;;13.23;;
84254;SDS011;74400;44.692;18.998;2024-03-08T08:31:41;18.75;;;12.07;;
84254;SDS011;74400;44.692;18.998;2024-03-08T08:34:09;17.50;;;11.93;;
84254;SDS011;74400;44.692;18.998;2024-03-08T08:36:37;13.88;;;10.45;;
84254;SDS011;74400;44.692;18.998;2024-03-08T08:39:04;15.30;;;10.55;;
84254;SDS011;74400;44.692;18.998;2024-03-08T08:41:36;19.13;;;11.27;;
84254;SDS011;74400;44.692;18.998;2024-03-08T08:44:02;17.73;;;11.88;;
84254;SDS011;74400;44.692;18.998;2024-03-08T08:46:27;22.40;;;14.18;;
84254;SDS011;74400;44.692;18.998;2024-03-08T08:48:53;18.60;;;12.63;;
84254;SDS011;74400;44.692;18.998;2024-03-08T08:51:19;20.67;;;13.57;;
84254;SDS011;74400;44.692;18.998;2024-03-08T08:53:45;18.50;;;11.38;;
84254;SDS011;74400;44.692;18.998;2024-03-08T08:56:18;18.55;;;12.07;;
84254;SDS011;74400;44.692;18.998;2024-03-08T09:01:10;15.07;;;9.68;;
84254;SDS011;74400;44.692;18.998;2024-03-08T09:03:37;11.88;;;7.85;;
84254;SDS011;74400;44.692;18.998;2024-03-08T09:06:05;12.07;;;8.10;;
84254;SDS011;74400;44.692;18.998;2024-03-08T09:08:35;11.82;;;8.68;;
84254;SDS011;74400;44.692;18.998;2024-03-08T09:11:01;12.15;;;9.00;;
84254;SDS011;74400;44.692;18.998;2024-03-08T09:13:27;10.77;;;7.47;;
84254;SDS011;74400;44.692;18.998;2024-03-08T09:15:53;10.65;;;8.25;;
84254;SDS011;74400;44.692;18.998;2024-03-08T09:18:18;12.10;;;9.18;;
84254;SDS011;74400;44.692;18.998;2024-03-08T09:20:44;13.25;;;8.55;;
84254;SDS011;74400;44.692;18.998;2024-03-08T09:23:10;13.85;;;8.50;;
84254;SDS011;74400;44.692;18.998;2024-03-08T09:25:36;12.60;;;8.70;;
84254;SDS011;74400;44.692;18.998;2024-03-08T09:28:03;14.40;;;9.10;;
84254;SDS011;74400;44.692;18.998;2024-03-08T09:30:31;16.75;;;10.82;;
84254;SDS011;74400;44.692;18.998;2024-03-08T09:32:56;16.13;;;11.02;;
84254;SDS011;74400;44.692;18.998;2024-03-08T09:35:22;13.10;;;9.15;;
84254;SDS011;74400;44.692;18.998;2024-03-08T09:37:48;13.82;;;8.35;;
84254;SDS011;74400;44.692;18.998;2024-03-08T09:40:16;14.15;;;9.93;;
84254;SDS011;74400;44.692;18.998;2024-03-08T09:42:47;17.27;;;11.32;;
84254;SDS011;74400;44.692;18.998;2024-03-08T09:45:14;15.40;;;10.98;;
84254;SDS011;74400;44.692;18.998;2024-03-08T09:47:42;17.75;;;11.20;;
84254;SDS011;74400;44.692;18.998;2024-03-08T09:50:09;18.60;;;11.90;;
84254;SDS011;74400;44.692;18.998;2024-03-08T09:52:40;19.08;;;12.07;;
84254;SDS011;74400;44.692;18.998;2024-03-08T09:55:11;18.02;;;10.80;;
84254;SDS011;74400;44.692;18.998;2024-03-08T09:57:37;19.73;;;12.73;;
84254;SDS011;74400;44.692;18.998;2024-03-08T10:00:05;20.08;;;12.55;;
84254;SDS011;74400;44.692;18.998;2024-03-08T10:02:39;20.65;;;12.32;;
84254;SDS011;74400;44.692;18.998;2024-03-08T10:05:04;20.40;;;13.40;;
84254;SDS011;74400;44.692;18.998;2024-03-08T10:07:30;24.23;;;13.98;;
84254;SDS011;74400;44.692;18.998;2024-03-08T10:09:56;24.48;;;14.75;;
84254;SDS011;74400;44.692;18.998;2024-03-08T10:12:22;24.30;;;15.25;;
84254;SDS011;74400;44.692;18.998;2024-03-08T10:14:47;23.50;;;14.77;;
84254;SDS011;74400;44.692;18.998;2024-03-08T10:17:13;24.77;;;14.73;;
84254;SDS011;74400;44.692;18.998;2024-03-08T10:19:39;25.73;;;15.50;;
84254;SDS011;74400;44.692;18.998;2024-03-08T10:22:15;26.77;;;16.10;;
84254;SDS011;74400;44.692;18.998;2024-03-08T10:24:41;17.75;;;11.73;;
84254;SDS011;74400;44.692;18.998;2024-03-08T10:27:06;20.42;;;12.07;;
84254;SDS011;74400;44.692;18.998;2024-03-08T10:29:33;24.08;;;14.23;;
84254;SDS011;74400;44.692;18.998;2024-03-08T10:31:58;22.23;;;14.15;;
84254;SDS011;74400;44.692;18.998;2024-03-08T10:34:24;23.75;;;14.48;;
84254;SDS011;74400;44.692;18.998;2024-03-08T10:36:51;26.65;;;15.38;;
84254;SDS011;74400;44.692;18.998;2024-03-08T10:39:24;23.63;;;15.32;;
84254;SDS011;74400;44.692;18.998;2024-03-08T10:41:52;22.08;;;14.20;;
84254;SDS011;74400;44.692;18.998;2024-03-08T10:49:50;24.67;;;14.85;;
84254;SDS011;74400;44.692;18.998;2024-03-08T10:52:18;22.98;;;14.57;;
84254;SDS011;74400;44.692;18.998;2024-03-08T10:54:44;24.05;;;15.27;;
84254;SDS011;74400;44.692;18.998;2024-03-08T10:57:10;22.40;;;14.38;;
84254;SDS011;74400;44.692;18.998;2024-03-08T10:59:37;22.27;;;14.77;;
84254;SDS011;74400;44.692;18.998;2024-03-08T11:02:04;24.85;;;15.93;;
84254;SDS011;74400;44.692;18.998;2024-03-08T11:04:31;21.63;;;14.45;;
84254;SDS011;74400;44.692;18.998;2024-03-08T11:07:01;21.95;;;13.43;;
84254;SDS011;74400;44.692;18.998;2024-03-08T11:09:32;20.63;;;13.45;;
84254;SDS011;74400;44.692;18.998;2024-03-08T11:14:42;19.13;;;13.57;;
84254;SDS011;74400;44.692;18.998;2024-03-08T11:17:09;21.50;;;13.15;;
84254;SDS011;74400;44.692;18.998;2024-03-08T11:19:36;18.73;;;13.35;;
84254;SDS011;74400;44.692;18.998;2024-03-08T11:22:02;26.73;;;15.70;;
84254;SDS011;74400;44.692;18.998;2024-03-08T11:24:36;21.20;;;14.73;;
84254;SDS011;74400;44.692;18.998;2024-03-08T11:27:06;19.42;;;14.02;;
84254;SDS011;74400;44.692;18.998;2024-03-08T11:29:35;21.67;;;14.35;;
84254;SDS011;74400;44.692;18.998;2024-03-08T11:32:12;23.65;;;14.48;;
84254;SDS011;74400;44.692;18.998;2024-03-08T11:34:39;22.92;;;14.82;;
84254;SDS011;74400;44.692;18.998;2024-03-08T11:39:40;19.48;;;13.73;;
84254;SDS011;74400;44.692;18.998;2024-03-08T11:44:37;21.88;;;13.73;;
84254;SDS011;74400;44.692;18.998;2024-03-08T11:47:07;21.92;;;13.57;;
84254;SDS011;74400;44.692;18.998;2024-03-08T11:49:35;19.77;;;13.38;;
84254;SDS011;74400;44.692;18.998;2024-03-08T11:52:01;23.92;;;14.85;;
84254;SDS011;74400;44.692;18.998;2024-03-08T11:54:28;27.73;;;15.10;;
84254;SDS011;74400;44.692;18.998;2024-03-08T11:56:55;24.58;;;15.85;;
84254;SDS011;74400;44.692;18.998;2024-03-08T11:59:28;22.13;;;14.07;;
84254;SDS011;74400;44.692;18.998;2024-03-08T12:02:05;20.25;;;13.48;;
84254;SDS011;74400;44.692;18.998;2024-03-08T12:04:32;21.50;;;14.88;;
84254;SDS011;74400;44.692;18.998;2024-03-08T12:07:01;20.35;;;13.38;;
84254;SDS011;74400;44.692;18.998;2024-03-08T12:09:30;21.38;;;13.82;;
84254;SDS011;74400;44.692;18.998;2024-03-08T12:11:58;18.30;;;12.63;;
84254;SDS011;74400;44.692;18.998;2024-03-08T12:14:24;19.15;;;12.60;;
84254;SDS011;74400;44.692;18.998;2024-03-08T12:16:50;19.40;;;13.85;;
84254;SDS011;74400;44.692;18.998;2024-03-08T12:19:17;22.13;;;14.45;;
84254;SDS011;74400;44.692;18.998;2024-03-08T12:21:43;19.52;;;12.73;;
84254;SDS011;74400;44.692;18.998;2024-03-08T12:24:14;19.45;;;12.60;;
84254;SDS011;74400;44.692;18.998;2024-03-08T12:26:44;20.17;;;13.70;;
84254;SDS011;74400;44.692;18.998;2024-03-08T12:31:38;22.05;;;13.68;;
84254;SDS011;74400;44.692;18.998;2024-03-08T12:34:04;20.17;;;13.43;;
84254;SDS011;74400;44.692;18.998;2024-03-08T12:36:30;17.13;;;12.43;;
84254;SDS011;74400;44.692;18.998;2024-03-08T12:38:55;18.77;;;12.45;;
84254;SDS011;74400;44.692;18.998;2024-03-08T12:41:22;21.83;;;14.13;;
84254;SDS011;74400;44.692;18.998;2024-03-08T12:43:48;20.17;;;13.73;;
84254;SDS011;74400;44.692;18.998;2024-03-08T12:46:17;19.25;;;13.55;;
84254;SDS011;74400;44.692;18.998;2024-03-08T12:48:46;22.33;;;13.32;;
84254;SDS011;74400;44.692;18.998;2024-03-08T12:53:39;20.48;;;12.10;;
84254;SDS011;74400;44.692;18.998;2024-03-08T12:56:09;20.05;;;13.02;;
84254;SDS011;74400;44.692;18.998;2024-03-08T12:58:36;19.63;;;12.73;;
84254;SDS011;74400;44.692;18.998;2024-03-08T13:01:05;18.20;;;12.02;;
84254;SDS011;74400;44.692;18.998;2024-03-08T13:03:36;19.30;;;12.47;;
84254;SDS011;74400;44.692;18.998;2024-03-08T13:06:05;18.92;;;12.70;;
84254;SDS011;74400;44.692;18.998;2024-03-08T13:08:36;19.33;;;12.80;;
84254;SDS011;74400;44.692;18.998;2024-03-08T13:11:06;19.25;;;12.70;;
84254;SDS011;74400;44.692;18.998;2024-03-08T13:13:33;17.65;;;11.73;;
84254;SDS011;74400;44.692;18.998;2024-03-08T13:16:03;18.20;;;12.27;;
84254;SDS011;74400;44.692;18.998;2024-03-08T13:18:33;18.65;;;11.48;;
84254;SDS011;74400;44.692;18.998;2024-03-08T13:20:58;18.98;;;12.15;;
84254;SDS011;74400;44.692;18.998;2024-03-08T13:23:24;20.02;;;13.13;;
84254;SDS011;74400;44.692;18.998;2024-03-08T13:25:50;19.48;;;12.32;;
84254;SDS011;74400;44.692;18.998;2024-03-08T13:28:16;18.50;;;12.15;;
84254;SDS011;74400;44.692;18.998;2024-03-08T13:30:48;18.65;;;12.25;;
84254;SDS011;74400;44.692;18.998;2024-03-08T13:33:13;19.60;;;12.40;;
84254;SDS011;74400;44.692;18.998;2024-03-08T13:35:40;19.85;;;13.48;;
84254;SDS011;74400;44.692;18.998;2024-03-08T13:38:06;18.63;;;11.27;;
84254;SDS011;74400;44.692;18.998;2024-03-08T13:40:37;19.77;;;12.35;;
84254;SDS011;74400;44.692;18.998;2024-03-08T13:43:02;21.83;;;13.02;;
84254;SDS011;74400;44.692;18.998;2024-03-08T13:45:29;19.55;;;12.73;;
84254;SDS011;74400;44.692;18.998;2024-03-08T13:47:55;19.30;;;12.50;;
84254;SDS011;74400;44.692;18.998;2024-03-08T13:50:21;18.80;;;13.23;;
84254;SDS011;74400;44.692;18.998;2024-03-08T13:52:47;20.70;;;12.88;;
84254;SDS011;74400;44.692;18.998;2024-03-08T13:55:17;18.90;;;12.50;;
84254;SDS011;74400;44.692;18.998;2024-03-08T13:57:43;17.15;;;11.95;;
84254;SDS011;74400;44.692;18.998;2024-03-08T14:00:10;19.80;;;12.95;;
84254;SDS011;74400;44.692;18.998;2024-03-08T14:02:40;23.17;;;12.80;;
84254;SDS011;74400;44.692;18.998;2024-03-08T14:05:09;20.90;;;13.23;;
84254;SDS011;74400;44.692;18.998;2024-03-08T14:07:37;22.13;;;13.68;;
84254;SDS011;74400;44.692;18.998;2024-03-08T14:10:02;21.55;;;13.48;;
84254;SDS011;74400;44.692;18.998;2024-03-08T14:12:29;19.65;;;13.05;;
84254;SDS011;74400;44.692;18.998;2024-03-08T14:14:55;28.10;;;17.90;;
84254;SDS011;74400;44.692;18.998;2024-03-08T14:17:25;24.35;;;16.98;;
84254;SDS011;74400;44.692;18.998;2024-03-08T14:19:52;23.30;;;14.85;;
84254;SDS011;74400;44.692;18.998;2024-03-08T14:22:18;22.73;;;13.77;;
84254;SDS011;74400;44.692;18.998;2024-03-08T14:24:45;22.42;;;13.70;;
84254;SDS011;74400;44.692;18.998;2024-03-08T14:27:11;26.05;;;16.08;;
84254;SDS011;74400;44.692;18.998;2024-03-08T14:29:37;28.02;;;17.15;;
84254;SDS011;74400;44.692;18.998;2024-03-08T14:32:06;26.17;;;16.85;;